createdAt,value
2023-02-13T00:00:44.705Z,8.23
2023-02-13T00:03:46.997Z,5.72
2023-02-13T00:06:49.748Z,4.20
2023-02-13T00:09:51.898Z,3.80
2023-02-13T00:12:54.088Z,3.53
2023-02-13T00:16:00.631Z,3.80
2023-02-13T00:19:02.949Z,4.97
2023-02-13T00:22:05.142Z,9.75
2023-02-13T00:25:08.559Z,4.32
2023-02-13T00:28:10.792Z,4.28
2023-02-13T00:31:15.669Z,4.90
2023-02-13T00:34:17.966Z,4.90
2023-02-13T00:37:20.200Z,3.80
2023-02-13T00:40:22.486Z,5.12
2023-02-13T00:43:24.659Z,5.22
2023-02-13T00:46:26.902Z,8.20
2023-02-13T00:49:29.127Z,7.62
2023-02-13T00:52:31.330Z,5.62
2023-02-13T00:55:35.301Z,5.35
2023-02-13T00:58:37.756Z,5.25
2023-02-13T01:01:39.986Z,5.30
2023-02-13T01:04:42.238Z,6.03
2023-02-13T01:07:44.438Z,8.07
2023-02-13T01:10:47.717Z,7.90
2023-02-13T01:13:49.875Z,4.85
2023-02-13T01:16:52.113Z,3.55
2023-02-13T01:19:54.541Z,11.70
2023-02-13T01:22:57.485Z,3.72
2023-02-13T01:26:00.281Z,3.65
2023-02-13T01:29:02.455Z,3.75
2023-02-13T01:32:05.318Z,4.22
2023-02-13T01:35:08.680Z,4.20
2023-02-13T01:38:10.886Z,7.20
2023-02-13T01:41:13.767Z,5.72
2023-02-13T01:44:56.881Z,4.87
2023-02-13T01:48:05.926Z,4.28
2023-02-13T01:51:13.128Z,3.75
2023-02-13T01:54:30.873Z,4.82
2023-02-13T01:57:33.320Z,5.18
2023-02-13T02:00:36.727Z,3.90
2023-02-13T02:03:43.622Z,4.40
2023-02-13T02:06:53.348Z,5.55
2023-02-13T02:09:59.032Z,5.32
2023-02-13T02:13:18.572Z,12.18
2023-02-13T02:16:20.998Z,3.37
2023-02-13T02:19:48.672Z,5.00
2023-02-13T02:23:03.170Z,3.33
2023-02-13T02:26:24.233Z,5.00
2023-02-13T02:29:54.106Z,3.72
2023-02-13T02:33:37.522Z,4.40
2023-02-13T02:37:10.570Z,3.55
2023-02-13T02:40:19.768Z,2.75
2023-02-13T02:43:35.683Z,3.00
2023-02-13T02:47:02.486Z,10.70
2023-02-13T02:50:16.653Z,3.50
2023-02-13T02:53:33.663Z,3.20
2023-02-13T02:56:41.172Z,8.32
2023-02-13T03:00:02.665Z,6.10
2023-02-13T03:03:36.689Z,5.93
2023-02-13T03:06:46.162Z,7.82
2023-02-13T03:10:24.281Z,3.90
2023-02-13T03:13:47.490Z,1.98
2023-02-13T03:17:09.332Z,16.27
2023-02-13T03:20:30.620Z,4.32
2023-02-13T03:23:32.733Z,3.33
2023-02-13T03:26:50.464Z,5.45
2023-02-13T03:30:08.290Z,10.73
2023-02-13T03:33:33.749Z,10.43
2023-02-13T03:37:18.505Z,5.78
2023-02-13T03:40:29.713Z,5.57
2023-02-13T03:43:38.306Z,8.20
2023-02-13T03:46:44.685Z,7.43
2023-02-13T03:50:06.634Z,10.63
2023-02-13T03:53:11.935Z,6.03
2023-02-13T03:56:35.708Z,7.18
2023-02-13T03:59:37.913Z,5.18
2023-02-13T04:02:57.986Z,11.18
2023-02-13T04:06:29.583Z,5.57
2023-02-13T04:09:33.715Z,12.32
2023-02-13T04:12:40.923Z,3.85
2023-02-13T04:15:50.703Z,7.45
2023-02-13T04:18:53.352Z,11.18
2023-02-13T04:21:58.031Z,9.98
2023-02-13T04:25:00.652Z,5.30
2023-02-13T04:28:02.889Z,5.30
2023-02-13T04:31:05.311Z,4.93
2023-02-13T04:34:07.617Z,6.30
2023-02-13T04:37:09.860Z,3.85
2023-02-13T04:40:12.272Z,4.07
2023-02-13T04:43:14.427Z,9.57
2023-02-13T04:46:16.598Z,4.57
2023-02-13T04:49:19.055Z,5.00
2023-02-13T04:52:21.234Z,8.38
2023-02-13T04:55:24.762Z,3.67
2023-02-13T04:58:26.962Z,6.90
2023-02-13T05:01:29.393Z,11.07
2023-02-13T05:04:31.748Z,12.13
2023-02-13T05:07:33.977Z,9.35
2023-02-13T05:10:36.850Z,5.68
2023-02-13T05:13:39.029Z,9.63
2023-02-13T05:16:41.238Z,7.22
2023-02-13T05:19:43.452Z,15.50
2023-02-13T05:23:05.290Z,9.98
2023-02-13T05:26:07.510Z,7.22
2023-02-13T05:29:19.749Z,10.68
2023-02-13T05:32:22.032Z,10.43
2023-02-13T05:35:25.707Z,5.75
2023-02-13T05:38:27.878Z,4.05
2023-02-13T05:41:30.322Z,7.97
2023-02-13T05:44:32.922Z,21.35
2023-02-13T05:47:35.151Z,15.20
2023-02-13T05:50:37.570Z,9.38
2023-02-13T05:53:39.878Z,11.90
2023-02-13T05:56:42.142Z,14.00
2023-02-13T05:59:44.599Z,15.13
2023-02-13T06:02:46.840Z,9.40
2023-02-13T06:05:49.024Z,8.98
2023-02-13T06:08:51.802Z,11.95
2023-02-13T06:11:54.073Z,16.05
2023-02-13T06:14:56.271Z,31.58
2023-02-13T06:17:58.660Z,16.50
2023-02-13T06:21:01.534Z,9.68
2023-02-13T06:24:05.169Z,5.32
2023-02-13T06:27:07.368Z,10.10
2023-02-13T06:30:10.058Z,20.35
2023-02-13T06:33:12.288Z,17.92
2023-02-13T06:36:14.457Z,16.50
2023-02-13T06:39:16.647Z,10.80
2023-02-13T06:42:18.944Z,15.65
2023-02-13T06:45:21.116Z,18.50
2023-02-13T06:48:23.332Z,12.80
2023-02-13T06:51:25.532Z,21.00
2023-02-13T06:54:44.758Z,24.92
2023-02-13T06:57:49.056Z,15.48
2023-02-13T07:00:52.331Z,19.27
2023-02-13T07:03:55.093Z,23.08
2023-02-13T07:06:57.868Z,16.35
2023-02-13T07:10:00.814Z,11.82
2023-02-13T07:13:06.101Z,8.48
2023-02-13T07:16:08.581Z,11.73
2023-02-13T07:19:10.868Z,32.45
2023-02-13T07:22:13.357Z,17.52
2023-02-13T07:25:15.479Z,16.00
2023-02-13T07:28:17.625Z,23.73
2023-02-13T07:31:19.970Z,17.55
2023-02-13T07:34:22.450Z,14.93
2023-02-13T07:37:24.694Z,13.30
2023-02-13T07:40:26.962Z,15.85
2023-02-13T07:43:29.360Z,11.02
2023-02-13T07:46:31.625Z,14.10
2023-02-13T07:49:34.380Z,15.60
2023-02-13T07:52:37.961Z,15.90
2023-02-13T07:55:40.226Z,11.02
2023-02-13T07:58:42.453Z,16.67
2023-02-13T08:01:44.665Z,15.45
2023-02-13T08:04:46.898Z,7.53
2023-02-13T08:07:49.117Z,6.87
2023-02-13T08:11:09.921Z,10.23
2023-02-13T08:14:12.543Z,7.00
2023-02-13T08:17:14.726Z,6.45
2023-02-13T08:20:17.217Z,11.25
2023-02-13T08:23:19.471Z,9.10
2023-02-13T08:26:21.658Z,9.63
2023-02-13T08:29:23.887Z,19.00
2023-02-13T08:40:24.506Z,3.78
2023-02-13T08:43:28.160Z,8.88
2023-02-13T08:46:30.397Z,7.57
2023-02-13T08:49:33.299Z,7.20
2023-02-13T08:52:35.533Z,4.62
2023-02-13T08:55:37.689Z,6.75
2023-02-13T08:58:39.878Z,11.15
2023-02-13T09:01:42.190Z,12.57
2023-02-13T09:04:44.649Z,7.22
2023-02-13T09:07:46.857Z,8.90
2023-02-13T09:10:56.751Z,11.43
2023-02-13T09:13:58.971Z,7.78
2023-02-13T09:17:01.222Z,9.50
2023-02-13T09:20:03.483Z,10.18
2023-02-13T09:23:05.758Z,7.53
2023-02-13T09:26:10.705Z,10.77
2023-02-13T09:29:12.895Z,13.35
2023-02-13T09:32:16.072Z,9.73
2023-02-13T09:35:18.884Z,12.07
2023-02-13T09:38:21.066Z,10.77
2023-02-13T09:41:32.556Z,10.98
2023-02-13T09:47:44.579Z,8.68
2023-02-13T09:50:46.806Z,16.60
2023-02-13T09:53:57.881Z,10.43
2023-02-13T09:57:15.878Z,12.77
2023-02-13T10:00:31.814Z,13.02
2023-02-13T10:03:56.019Z,12.37
2023-02-13T10:07:13.088Z,16.23
2023-02-13T10:10:21.906Z,9.80
2023-02-13T10:13:40.545Z,11.25
2023-02-13T10:16:50.880Z,9.73
2023-02-13T10:20:07.753Z,10.50
2023-02-13T10:23:31.876Z,12.60
2023-02-13T10:26:48.307Z,8.25
2023-02-13T10:30:05.280Z,12.10
2023-02-13T10:33:52.387Z,13.18
2023-02-13T10:36:55.242Z,13.55
2023-02-13T10:39:57.545Z,9.30
2023-02-13T10:43:10.037Z,10.82
2023-02-13T10:46:29.314Z,13.20
2023-02-13T10:49:37.379Z,16.02
2023-02-13T10:52:48.044Z,14.75
2023-02-13T10:56:00.552Z,13.00
2023-02-13T10:59:30.325Z,12.37
2023-02-13T11:02:34.776Z,13.90
2023-02-13T11:05:38.789Z,12.93
2023-02-13T11:08:43.871Z,11.55
2023-02-13T11:11:46.180Z,10.75
2023-02-13T11:15:02.326Z,14.57
2023-02-13T11:18:14.528Z,12.37
2023-02-13T11:21:23.918Z,8.40
2023-02-13T11:24:27.539Z,17.95
2023-02-13T11:27:36.039Z,12.95
2023-02-13T11:30:39.265Z,10.93
2023-02-13T11:33:42.137Z,10.25
2023-02-13T11:36:44.428Z,13.75
2023-02-13T11:39:51.201Z,12.75
2023-02-13T11:42:53.634Z,16.30
2023-02-13T11:46:12.677Z,18.10
2023-02-13T11:49:23.744Z,12.43
2023-02-13T11:52:29.517Z,10.65
2023-02-13T11:55:40.229Z,12.82
2023-02-13T11:58:42.804Z,8.57
2023-02-13T12:01:49.289Z,26.48
2023-02-13T12:05:15.142Z,16.25
2023-02-13T12:08:17.380Z,16.27
2023-02-13T12:11:19.468Z,13.20
2023-02-13T12:14:24.926Z,12.13
2023-02-13T12:17:32.046Z,17.17
2023-02-13T12:20:53.774Z,15.25
2023-02-13T12:24:03.678Z,13.27
2023-02-13T12:27:17.859Z,11.50
2023-02-13T12:30:44.923Z,21.20
2023-02-13T12:34:07.116Z,9.98
2023-02-13T12:37:47.699Z,8.82
2023-02-13T12:41:11.584Z,12.43
2023-02-13T12:44:38.765Z,12.20
2023-02-13T12:48:00.491Z,9.00
2023-02-13T12:51:25.421Z,7.60
2023-02-13T12:54:48.631Z,7.60
2023-02-13T12:57:59.796Z,9.73
2023-02-13T13:01:10.286Z,16.33
2023-02-13T13:04:31.360Z,9.53
2023-02-13T13:07:39.665Z,6.78
2023-02-13T13:10:46.555Z,13.07
2023-02-13T13:14:04.210Z,15.07
2023-02-13T13:17:34.115Z,14.00
2023-02-13T13:21:03.439Z,8.95
2023-02-13T13:24:08.608Z,11.80
2023-02-13T13:27:23.618Z,8.13
2023-02-13T13:30:44.304Z,10.38
2023-02-13T13:33:47.099Z,9.03
2023-02-13T13:36:53.372Z,8.93
2023-02-13T13:40:04.519Z,8.80
2023-02-13T13:43:29.790Z,11.57
2023-02-13T13:46:59.314Z,15.57
2023-02-13T13:50:02.157Z,13.73
2023-02-13T13:53:12.923Z,7.70
2023-02-13T13:56:15.369Z,7.80
2023-02-13T13:59:19.723Z,9.77
2023-02-13T14:02:21.890Z,9.15
2023-02-13T14:05:32.079Z,7.78
2023-02-13T14:08:37.196Z,13.10
2023-02-13T14:11:42.029Z,9.25
2023-02-13T14:14:45.294Z,13.43
2023-02-13T14:17:50.332Z,6.97
2023-02-13T14:21:00.948Z,8.68
2023-02-13T14:24:11.271Z,9.15
2023-02-13T14:27:25.363Z,9.43
2023-02-13T14:30:36.306Z,12.37
2023-02-13T14:33:38.588Z,11.02
2023-02-13T14:36:43.450Z,13.68
2023-02-13T14:40:11.757Z,11.15
2023-02-13T14:43:17.066Z,19.52
2023-02-13T14:46:35.770Z,9.55
2023-02-13T14:49:40.416Z,8.90
2023-02-13T14:52:43.722Z,5.95
2023-02-13T14:55:46.713Z,7.85
2023-02-13T14:58:53.025Z,6.50
2023-02-13T15:02:02.072Z,5.68
2023-02-13T15:05:12.280Z,14.63
2023-02-13T15:08:18.025Z,20.40
2023-02-13T15:11:36.219Z,13.35
2023-02-13T15:14:38.523Z,15.88
2023-02-13T15:17:41.169Z,20.50
2023-02-13T15:20:43.959Z,23.02
2023-02-13T15:23:49.933Z,21.25
2023-02-13T15:27:06.717Z,9.07
2023-02-13T15:30:30.568Z,12.30
2023-02-13T15:33:47.029Z,18.12
2023-02-13T15:36:49.400Z,12.88
2023-02-13T15:39:51.636Z,22.05
2023-02-13T15:42:54.768Z,17.62
2023-02-13T15:46:00.689Z,10.65
2023-02-13T15:49:07.489Z,18.17
2023-02-13T15:52:17.018Z,9.25
2023-02-13T15:55:26.928Z,8.88
2023-02-13T15:58:31.924Z,12.85
2023-02-13T16:01:34.480Z,12.85
2023-02-13T16:04:36.908Z,13.98
2023-02-13T16:07:57.447Z,15.88
2023-02-13T16:11:38.584Z,11.70
2023-02-13T16:14:50.605Z,12.80
2023-02-13T16:17:52.835Z,13.60
2023-02-13T16:20:56.588Z,13.85
2023-02-13T16:24:03.023Z,17.55
2023-02-13T16:27:13.553Z,14.70
2023-02-13T16:30:27.502Z,30.00
2023-02-13T16:33:30.499Z,60.25
2023-02-13T16:36:34.451Z,77.05
2023-02-13T16:39:36.813Z,129.68
2023-02-13T16:42:38.959Z,114.07
2023-02-13T16:45:41.251Z,101.35
2023-02-13T16:48:45.919Z,83.18
2023-02-13T16:51:51.702Z,68.82
2023-02-13T16:55:00.869Z,55.40
2023-02-13T16:58:05.280Z,50.95
2023-02-13T17:01:07.594Z,45.75
2023-02-13T17:04:24.035Z,65.07
2023-02-13T17:07:31.610Z,114.07
2023-02-13T17:10:38.470Z,218.45
2023-02-13T17:13:42.091Z,148.87
2023-02-13T17:16:44.570Z,120.43
2023-02-13T17:19:47.060Z,97.00
2023-02-13T17:22:51.412Z,81.28
2023-02-13T17:25:54.186Z,61.17
2023-02-13T17:28:56.598Z,71.65
2023-02-13T17:31:58.864Z,68.10
2023-02-13T17:35:01.289Z,51.33
2023-02-13T17:38:04.358Z,46.05
2023-02-13T17:41:12.349Z,46.78
2023-02-13T17:44:14.725Z,65.57
2023-02-13T17:47:17.279Z,63.78
2023-02-13T17:50:20.221Z,74.70
2023-02-13T17:53:32.185Z,59.50
2023-02-13T17:56:34.486Z,53.25
2023-02-13T17:59:36.974Z,58.40
2023-02-13T18:02:39.527Z,42.75
2023-02-13T18:05:42.566Z,38.97
2023-02-13T18:08:45.066Z,49.47
2023-02-13T18:12:03.696Z,68.82
2023-02-13T18:15:07.879Z,56.25
2023-02-13T18:18:12.497Z,57.65
2023-02-13T18:21:14.727Z,40.15
2023-02-13T18:24:17.186Z,27.87
2023-02-13T18:27:19.733Z,20.95
2023-02-13T18:30:22.155Z,30.02
2023-02-13T18:33:24.695Z,21.33
2023-02-13T18:36:26.932Z,28.30
2023-02-13T18:39:29.214Z,23.75
2023-02-13T18:42:31.724Z,23.50
2023-02-13T18:45:36.249Z,31.83
2023-02-13T18:48:38.695Z,28.50
2023-02-13T18:51:42.489Z,29.35
2023-02-13T18:54:45.739Z,30.85
2023-02-13T18:57:52.440Z,20.60
2023-02-13T19:00:55.163Z,32.83
2023-02-13T19:03:57.689Z,48.60
2023-02-13T19:07:00.254Z,53.70
2023-02-13T19:10:02.898Z,20.60
2023-02-13T19:13:05.775Z,30.80
2023-02-13T19:16:15.569Z,32.75
2023-02-13T19:19:18.160Z,26.40
2023-02-13T19:22:20.320Z,26.60
2023-02-13T19:25:22.888Z,22.95
2023-02-13T19:28:25.433Z,40.47
2023-02-13T19:31:30.192Z,44.83
2023-02-13T19:34:32.601Z,52.53
2023-02-13T19:37:43.523Z,47.45
2023-02-13T19:40:46.858Z,21.20
2023-02-13T19:43:53.673Z,17.95
2023-02-13T19:46:56.322Z,21.25
2023-02-13T19:49:58.789Z,25.00
2023-02-13T19:53:04.202Z,21.10
2023-02-13T19:56:08.317Z,21.60
2023-02-13T19:59:13.351Z,25.42
2023-02-13T20:02:17.242Z,23.40
2023-02-13T20:05:19.433Z,20.90
2023-02-13T20:08:21.753Z,22.17
2023-02-13T20:11:24.009Z,28.30
2023-02-13T20:14:27.233Z,19.42
2023-02-13T20:17:30.821Z,17.05
2023-02-13T20:20:33.385Z,21.70
2023-02-13T20:23:36.565Z,16.35
2023-02-13T20:26:39.769Z,12.63
2023-02-13T20:29:42.759Z,14.32
2023-02-13T20:32:45.637Z,17.42
2023-02-13T20:35:47.881Z,21.02
2023-02-13T20:38:52.724Z,17.95
2023-02-13T20:41:55.216Z,18.52
2023-02-13T20:44:57.652Z,22.25
2023-02-13T20:48:00.104Z,24.55
2023-02-13T20:51:04.866Z,52.05
2023-02-13T20:54:07.061Z,50.00
2023-02-13T20:57:09.439Z,23.65
2023-02-13T21:00:13.222Z,19.90
2023-02-13T21:03:15.684Z,22.30
2023-02-13T21:06:26.477Z,28.75
2023-02-13T21:09:29.175Z,25.40
2023-02-13T21:12:31.857Z,27.80
2023-02-13T21:15:34.396Z,30.60
2023-02-13T21:18:37.788Z,24.45
2023-02-13T21:21:44.272Z,27.90
2023-02-13T21:24:49.884Z,18.83
2023-02-13T21:27:52.351Z,15.25
2023-02-13T21:30:54.880Z,22.33
2023-02-13T21:34:04.720Z,24.02
2023-02-13T21:37:07.461Z,26.35
2023-02-13T21:40:10.154Z,17.50
2023-02-13T21:43:12.308Z,17.08
2023-02-13T21:46:17.238Z,17.50
2023-02-13T21:49:19.584Z,14.40
2023-02-13T21:52:21.791Z,18.10
2023-02-13T21:55:24.291Z,18.73
2023-02-13T21:58:27.656Z,12.25
2023-02-13T22:01:35.467Z,12.73
2023-02-13T22:04:37.800Z,17.77
2023-02-13T22:07:59.928Z,10.82
2023-02-13T22:11:02.224Z,34.97
2023-02-13T22:14:05.980Z,25.48
2023-02-13T22:17:08.337Z,35.45
2023-02-13T22:20:11.686Z,17.67
2023-02-13T22:23:16.505Z,21.42
2023-02-13T22:26:21.548Z,18.50
2023-02-13T22:29:25.748Z,23.77
2023-02-13T22:32:27.934Z,19.90
2023-02-13T22:35:30.177Z,11.07
2023-02-13T22:38:33.631Z,12.45
2023-02-13T22:41:35.979Z,16.62
2023-02-13T22:44:38.144Z,13.65
2023-02-13T22:47:40.306Z,12.07
2023-02-13T22:50:42.674Z,7.95
2023-02-13T22:53:45.126Z,9.48
2023-02-13T22:56:47.415Z,11.82
2023-02-13T22:59:49.607Z,41.30
2023-02-13T23:02:51.890Z,25.48
2023-02-13T23:05:54.118Z,41.42
2023-02-13T23:08:56.306Z,22.40
2023-02-13T23:12:16.792Z,34.25
2023-02-13T23:15:19.771Z,26.10
2023-02-13T23:18:21.949Z,18.70
2023-02-13T23:21:25.656Z,26.40
2023-02-13T23:24:28.937Z,9.07
2023-02-13T23:27:32.388Z,14.15
2023-02-13T23:30:34.916Z,15.95
2023-02-13T23:33:37.200Z,16.35
2023-02-13T23:36:40.251Z,15.18
2023-02-13T23:39:42.519Z,28.33
2023-02-13T23:42:44.746Z,16.52
2023-02-13T23:45:47.263Z,27.37
2023-02-13T23:48:49.433Z,28.65
2023-02-13T23:51:51.677Z,22.80
2023-02-13T23:54:53.925Z,11.27
2023-02-13T23:57:56.125Z,21.02
